地図

経路データ

SID SEASON NUMBER BASIN SUBBASIN NAME ISO_TIME NATURE LAT LON WMO_WIND WMO_PRES WMO_AGENCY TRACK_TYPE DIST2LAND LANDFALL IFLAG USA_AGENCY USA_ATCF_ID USA_LAT USA_LON USA_RECORD USA_STATUS USA_WIND USA_PRES USA_SSHS USA_R34_NE USA_R34_SE USA_R34_SW USA_R34_NW USA_R50_NE USA_R50_SE USA_R50_SW USA_R50_NW USA_R64_NE USA_R64_SE USA_R64_SW USA_R64_NW USA_POCI USA_ROCI USA_RMW USA_EYE TOKYO_LAT TOKYO_LON TOKYO_GRADE TOKYO_WIND TOKYO_PRES TOKYO_R50_DIR TOKYO_R50_LONG TOKYO_R50_SHORT TOKYO_R30_DIR TOKYO_R30_LONG TOKYO_R30_SHORT TOKYO_LAND CMA_LAT CMA_LON CMA_CAT CMA_WIND CMA_PRES HKO_LAT HKO_LON HKO_CAT HKO_WIND HKO_PRES NEWDELHI_LAT NEWDELHI_LON NEWDELHI_GRADE NEWDELHI_WIND NEWDELHI_PRES NEWDELHI_CI NEWDELHI_DP NEWDELHI_POCI REUNION_LAT REUNION_LON REUNION_TYPE REUNION_WIND REUNION_PRES REUNION_TNUM REUNION_CI REUNION_RMW REUNION_R34_NE REUNION_R34_SE REUNION_R34_SW REUNION_R34_NW REUNION_R50_NE REUNION_R50_SE REUNION_R50_SW REUNION_R50_NW REUNION_R64_NE REUNION_R64_SE REUNION_R64_SW REUNION_R64_NW BOM_LAT BOM_LON BOM_TYPE BOM_WIND BOM_PRES BOM_TNUM BOM_CI BOM_RMW BOM_R34_NE BOM_R34_SE BOM_R34_SW BOM_R34_NW BOM_R50_NE BOM_R50_SE BOM_R50_SW BOM_R50_NW BOM_R64_NE BOM_R64_SE BOM_R64_SW BOM_R64_NW BOM_ROCI BOM_POCI BOM_EYE BOM_POS_METHOD BOM_PRES_METHOD NADI_LAT NADI_LON NADI_CAT NADI_WIND NADI_PRES WELLINGTON_LAT WELLINGTON_LON WELLINGTON_WIND WELLINGTON_PRES DS824_LAT DS824_LON DS824_STAGE DS824_WIND DS824_PRES TD9636_LAT TD9636_LON TD9636_STAGE TD9636_WIND TD9636_PRES TD9635_LAT TD9635_LON TD9635_WIND TD9635_PRES TD9635_ROCI NEUMANN_LAT NEUMANN_LON NEUMANN_CLASS NEUMANN_WIND NEUMANN_PRES MLC_LAT MLC_LON MLC_CLASS MLC_WIND MLC_PRES USA_GUST BOM_GUST BOM_GUST_PER REUNION_GUST REUNION_GUST_PER USA_SEAHGT USA_SEARAD_NE USA_SEARAD_SE USA_SEARAD_SW USA_SEARAD_NW STORM_SPEED STORM_DIR
1975199N24086 1975 57 NI BB NOT_NAMED 1975-07-18 00:00:00 TS 24.1000 85.7000 main 0 0 O________OO___ jtwc_io IO091975 24.1000 85.7000 -1 24.1000 85.7000 TC 25 24.1000 85.7000 1 6 270
1975199N24086 1975 57 NI BB NOT_NAMED 1975-07-18 03:00:00 TS 24.0994 85.3536 main 0 0 P________PP___ IO091975 24.0927 85.3475 -1 24.0927 85.3475 TC 25 24.1130 85.3658 1 6 271
1975199N24086 1975 57 NI BB NOT_NAMED 1975-07-18 06:00:00 TS 24.1102 85.0085 main 0 0 O________OP___ jtwc_io IO091975 24.1000 85.0000 -1 24.1000 85.0000 TC 25 24.1305 85.0254 1 6 274
1975199N24086 1975 57 NI BB NOT_NAMED 1975-07-18 09:00:00 TS 24.1425 84.6624 main 0 0 P________PP___ IO091975 24.1349 84.6575 -1 24.1349 84.6575 TC 25 24.1578 84.6722 1 7 278
1975199N24086 1975 57 NI BB NOT_NAMED 1975-07-18 12:00:00 TS 24.2000 84.3000 main 0 0 O________OO___ jtwc_io IO091975 24.2000 84.3000 -1 24.2000 84.3000 TC 25 24.2000 84.3000 1 7 281
1975199N24086 1975 57 NI BB NOT_NAMED 1975-07-18 15:00:00 TS 24.2778 83.9113 main 0 0 P________PP___ IO091975 24.2849 83.9149 -1 24.2849 83.9149 TC 25 24.2635 83.9040 1 8 284
1975199N24086 1975 57 NI BB NOT_NAMED 1975-07-18 18:00:00 TS 24.3865 83.4954 main 0 0 O________OP___ jtwc_io IO091975 24.4000 83.5000 -1 24.4000 83.5000 TC 25 24.3596 83.4863 1 8 287
1975199N24086 1975 57 NI BB NOT_NAMED 1975-07-18 21:00:00 TS 24.5136 83.0550 main 0 0 P________PP___ IO091975 24.5199 83.0572 -1 24.5199 83.0572 TC 25 24.5009 83.0505 1 9 291
1975199N24086 1975 57 NI BB NOT_NAMED 1975-07-19 00:00:00 TS 24.7000 82.6000 main 0 0 O________OO___ jtwc_io IO091975 24.7000 82.6000 -1 24.7000 82.6000 TC 25 24.7000 82.6000 1 9 300
1975199N24086 1975 57 NI BB NOT_NAMED 1975-07-19 03:00:00 TS 24.9783 82.1558 main 0 0 P________PP___ IO091975 24.9698 82.1574 -1 24.9698 82.1574 TC 25 24.9954 82.1526 1 10 307
1975199N24086 1975 57 NI BB NOT_NAMED 1975-07-19 06:00:00 TS 25.3139 81.6963 main 0 0 O________OP___ jtwc_io IO091975 25.3000 81.7000 -1 25.3000 81.7000 TC 25 25.3417 81.6890 1 11 309
1975199N24086 1975 57 NI BB NOT_NAMED 1975-07-19 09:00:00 TS 25.6739 81.2169 main 0 0 P________PP___ IO091975 25.6647 81.2225 -1 25.6647 81.2225 TC 25 25.6922 81.2057 1 11 307
1975199N24086 1975 57 NI BB NOT_NAMED 1975-07-19 12:00:00 TS 26.0000 80.7000 main 0 0 O________OO___ jtwc_io IO091975 26.0000 80.7000 -1 26.0000 80.7000 TC 25 26.0000 80.7000 1 12 299
1975199N24086 1975 57 NI BB NOT_NAMED 1975-07-19 15:00:00 TS 26.2338 80.0939 main 0 0 P________PP___ IO091975 26.2376 80.0999 -1 26.2376 80.0999 TC 25 26.2261 80.0821 1 12 290
1975199N24086 1975 57 NI BB NOT_NAMED 1975-07-19 18:00:00 TS 26.3999 79.4858 main 0 0 O________OP___ jtwc_io IO091975 26.4000 79.5000 -1 26.4000 79.5000 TC 25 26.3996 79.4575 1 11 286
1975199N24086 1975 57 NI BB NOT_NAMED 1975-07-19 21:00:00 TS 26.5277 78.9130 main 0 0 P________PP___ IO091975 26.5301 78.9174 -1 26.5301 78.9174 TC 25 26.5230 78.9041 1 9 283
1975199N24086 1975 57 NI BB NOT_NAMED 1975-07-20 00:00:00 TS 26.6000 78.5000 main 0 0 O________OO___ jtwc_io IO091975 26.6000 78.5000 -1 26.6000 78.5000 TC 25 26.6000 78.5000 1 5 281
1975199N24086 1975 57 NI BB NOT_NAMED 1975-07-20 03:00:00 TS 26.6210 78.3667 main 0 0 P________PP___ IO091975 26.6147 78.3674 -1 26.6147 78.3674 TC 25 26.6337 78.3654 1 1 276
1975199N24086 1975 57 NI BB NOT_NAMED 1975-07-20 06:00:00 TS 26.6095 78.3930 main 0 0 O________OP___ jtwc_io IO091975 26.6000 78.4000 -1 26.6000 78.4000 TC 25 26.6286 78.3791 1 1 105
1975199N24086 1975 57 NI BB NOT_NAMED 1975-07-20 09:00:00 TS 26.5981 78.4611 main 0 0 P________PP___ IO091975 26.5925 78.4650 -1 26.5925 78.4650 TC 25 26.6092 78.4532 1 1 96
1975199N24086 1975 57 NI BB NOT_NAMED 1975-07-20 12:00:00 TS 26.6000 78.5000 main 0 0 O________OO___ jtwc_io IO091975 26.6000 78.5000 -1 26.6000 78.5000 TC 25 26.6000 78.5000 1 1 300
1975199N24086 1975 57 NI BB NOT_NAMED 1975-07-20 15:00:00 TS 26.6375 78.3898 main 0 0 P________PP___ IO091975 26.6425 78.3800 -1 26.6425 78.3800 TC 25 26.6274 78.4093 1 3 290
1975199N24086 1975 57 NI BB NOT_NAMED 1975-07-20 18:00:00 TS 26.6900 78.2249 main 0 0 O________OP___ jtwc_io IO091975 26.7000 78.2000 -1 26.7000 78.2000 TC 25 26.6699 78.2748 1 3 291
1975199N24086 1975 57 NI BB NOT_NAMED 1975-07-20 21:00:00 TS 26.7424 78.0776 main 0 0 P________PP___ IO091975 26.7499 78.0650 -1 26.7499 78.0650 TC 25 26.7274 78.1030 1 3 291
1975199N24086 1975 57 NI AS NOT_NAMED 1975-07-21 00:00:00 TS 26.8000 77.9000 main 0 0 O________OO___ jtwc_io IO091975 26.8000 77.9000 -1 26.8000 77.9000 TC 25 26.8000 77.9000 1 4 285
1975199N24086 1975 57 NI AS NOT_NAMED 1975-07-21 03:00:00 TS 26.8383 77.6720 main 0 0 P________PP___ IO091975 26.8350 77.6649 -1 26.8350 77.6649 TC 25 26.8450 77.6862 1 4 283
1975199N24086 1975 57 NI AS NOT_NAMED 1975-07-21 06:00:00 TS 26.9033 77.4146 main 0 0 O________OP___ jtwc_io IO091975 26.9000 77.4000 -1 26.9000 77.4000 TC 25 26.9099 77.4438 1 5 291
1975199N24086 1975 57 NI AS NOT_NAMED 1975-07-21 09:00:00 TS 27.0149 77.1648 main 0 0 P________PP___ IO091975 27.0124 77.1573 -1 27.0124 77.1573 TC 25 27.0199 77.1796 1 5 303
1975199N24086 1975 57 NI AS NOT_NAMED 1975-07-21 12:00:00 TS 27.2000 76.9000 main 0 0 O________OO___ jtwc_io IO091975 27.2000 76.9000 -1 27.2000 76.9000 TC 25 27.2000 76.9000 1 7 312
1975199N24086 1975 57 NI AS NOT_NAMED 1975-07-21 15:00:00 TS 27.4611 76.5992 main 0 0 P________PP___ IO091975 27.4625 76.6074 -1 27.4625 76.6074 TC 25 27.4582 76.5829 1 8 318
1975199N24086 1975 57 NI AS NOT_NAMED 1975-07-21 18:00:00 TS 27.7960 76.2855 main 0 0 O________OP___ jtwc_io IO091975 27.8000 76.3000 -1 27.8000 76.3000 TC 25 27.7881 76.2564 1 9 322
1975199N24086 1975 57 NI AS NOT_NAMED 1975-07-21 21:00:00 TS 28.1713 75.9640 main 0 0 P________PP___ IO091975 28.1701 75.9702 -1 28.1701 75.9702 TC 25 28.1739 75.9516 1 10 327
1975199N24086 1975 57 NI AS NOT_NAMED 1975-07-22 00:00:00 TS 28.6000 75.7000 main 0 0 O________OO___ jtwc_io IO091975 28.6000 75.7000 -1 28.6000 75.7000 TC 25 28.6000 75.7000 1 10 339
1975199N24086 1975 57 NI AS NOT_NAMED 1975-07-22 03:00:00 TS 29.0853 75.5616 main 0 0 P________PP___ IO091975 29.0924 75.5696 -1 29.0924 75.5696 TC 25 29.0711 75.5456 1 10 349
1975199N24086 1975 57 NI AS NOT_NAMED 1975-07-22 06:00:00 TS 29.5907 75.4821 main 0 0 O________OP___ jtwc_io IO091975 29.6000 75.5000 -1 29.6000 75.5000 TC 25 29.5720 75.4462 1 10 351
1975199N24086 1975 57 NI AS NOT_NAMED 1975-07-22 09:00:00 TS 30.0689 75.3912 main 0 0 P________PP___ IO091975 30.0725 75.3999 -1 30.0725 75.3999 TC 25 30.0619 75.3738 1 9 350
1975199N24086 1975 57 NI AS NOT_NAMED 1975-07-22 12:00:00 TS 30.5000 75.3000 main 0 0 O________OO___ jtwc_io IO091975 30.5000 75.3000 -1 30.5000 75.3000 TC 25 30.5000 75.3000 1 8 349
1975199N24086 1975 57 NI AS NOT_NAMED 1975-07-22 15:00:00 TS 30.8770 75.2056 main 0 0 P________PP___ IO091975 30.8875 75.2074 -1 30.8875 75.2074 TC 25 30.8562 75.2020 1 7 346
1975199N24086 1975 57 NI AS NOT_NAMED 1975-07-22 18:00:00 TS 31.1809 75.0937 main 0 0 O________OP___ jtwc_io IO091975 31.2000 75.1000 -1 31.2000 75.1000 TC 25 31.1428 75.0810 1 6 338
1975199N24086 1975 57 NI AS NOT_NAMED 1975-07-22 21:00:00 TS 31.4111 74.9549 main 0 0 P________PP___ IO091975 31.4251 74.9601 -1 31.4251 74.9601 TC 25 31.3831 74.9445 1 5 329
1975199N24086 1975 57 NI AS NOT_NAMED 1975-07-23 00:00:00 TS 31.6000 74.8000 main 0 O________OO___ jtwc_io IO091975 31.6000 74.8000 -1 31.6000 74.8000 TC 25 31.6000 74.8000 6 5 325

IBTrACS Databaseについて

本データベースは、米国NOAAが公開する1842年以降の世界の熱帯低気圧のベストトラックデータアーカイブInternational Best Track Archive for Climate Stewardship (IBTrACS)を、ウェブで閲覧しやすい形式に変換したものです。

最終更新日:2021-10-25